sensor_id;sensor_type;location;lat;lon;timestamp;P1;durP1;ratioP1;P2;durP2;ratioP2
56130;SDS011;42000;44.774;20.506;2022-12-29T11:48:52;15.38;;;7.28;;
56130;SDS011;42000;44.774;20.506;2022-12-29T11:51:22;16.95;;;6.22;;
56130;SDS011;42000;44.774;20.506;2022-12-29T11:53:53;10.70;;;4.68;;
56130;SDS011;42000;44.774;20.506;2022-12-29T11:56:38;12.25;;;5.88;;
56130;SDS011;42000;44.774;20.506;2022-12-29T12:01:50;11.35;;;4.97;;
56130;SDS011;42000;44.774;20.506;2022-12-29T12:04:17;8.52;;;4.47;;
56130;SDS011;42000;44.774;20.506;2022-12-29T12:06:57;7.85;;;3.92;;
56130;SDS011;42000;44.774;20.506;2022-12-29T12:09:25;11.13;;;5.28;;
56130;SDS011;42000;44.774;20.506;2022-12-29T12:11:55;9.90;;;3.83;;
56130;SDS011;42000;44.774;20.506;2022-12-29T12:14:30;8.27;;;3.88;;
56130;SDS011;42000;44.774;20.506;2022-12-29T12:17:10;10.73;;;3.90;;
56130;SDS011;42000;44.774;20.506;2022-12-29T12:19:39;8.13;;;3.63;;
56130;SDS011;42000;44.774;20.506;2022-12-29T12:22:13;9.15;;;4.10;;
56130;SDS011;42000;44.774;20.506;2022-12-29T12:27:30;11.93;;;6.00;;
56130;SDS011;42000;44.774;20.506;2022-12-29T12:30:10;10.80;;;5.63;;
56130;SDS011;42000;44.774;20.506;2022-12-29T12:32:48;14.77;;;5.70;;
56130;SDS011;42000;44.774;20.506;2022-12-29T12:35:22;7.88;;;4.32;;
56130;SDS011;42000;44.774;20.506;2022-12-29T12:37:55;7.68;;;4.47;;
56130;SDS011;42000;44.774;20.506;2022-12-29T12:43:06;15.20;;;4.97;;
56130;SDS011;42000;44.774;20.506;2022-12-29T13:11:44;11.38;;;5.90;;
56130;SDS011;42000;44.774;20.506;2022-12-29T13:19:35;9.68;;;4.72;;
56130;SDS011;42000;44.774;20.506;2022-12-29T13:22:14;11.77;;;4.90;;
56130;SDS011;42000;44.774;20.506;2022-12-29T13:27:20;13.25;;;5.38;;
56130;SDS011;42000;44.774;20.506;2022-12-29T13:30:05;8.35;;;3.70;;
56130;SDS011;42000;44.774;20.506;2022-12-29T13:37:47;11.93;;;5.38;;
56130;SDS011;42000;44.774;20.506;2022-12-29T13:40:15;11.95;;;6.90;;
56130;SDS011;42000;44.774;20.506;2022-12-29T13:42:42;17.23;;;9.52;;
56130;SDS011;42000;44.774;20.506;2022-12-29T13:45:16;18.58;;;8.98;;
56130;SDS011;42000;44.774;20.506;2022-12-29T13:47:44;21.17;;;9.90;;
56130;SDS011;42000;44.774;20.506;2022-12-29T13:50:15;27.70;;;14.50;;
56130;SDS011;42000;44.774;20.506;2022-12-29T13:55:24;26.70;;;13.88;;
56130;SDS011;42000;44.774;20.506;2022-12-29T13:58:00;30.95;;;15.50;;
56130;SDS011;42000;44.774;20.506;2022-12-29T14:00:30;40.13;;;19.27;;
56130;SDS011;42000;44.774;20.506;2022-12-29T14:05:35;34.67;;;18.58;;
56130;SDS011;42000;44.774;20.506;2022-12-29T14:08:03;40.42;;;19.45;;
56130;SDS011;42000;44.774;20.506;2022-12-29T14:10:33;42.47;;;19.27;;
56130;SDS011;42000;44.774;20.506;2022-12-29T14:15:32;36.97;;;19.80;;
56130;SDS011;42000;44.774;20.506;2022-12-29T14:18:03;41.55;;;21.15;;
56130;SDS011;42000;44.774;20.506;2022-12-29T14:20:30;39.45;;;21.52;;
56130;SDS011;42000;44.774;20.506;2022-12-29T14:28:15;41.70;;;19.83;;
56130;SDS011;42000;44.774;20.506;2022-12-29T14:30:48;41.80;;;19.88;;
56130;SDS011;42000;44.774;20.506;2022-12-29T14:33:14;42.00;;;19.65;;
56130;SDS011;42000;44.774;20.506;2022-12-29T14:35:42;39.63;;;19.42;;
56130;SDS011;42000;44.774;20.506;2022-12-29T14:38:15;47.88;;;20.38;;
56130;SDS011;42000;44.774;20.506;2022-12-29T14:40:41;40.92;;;20.00;;
56130;SDS011;42000;44.774;20.506;2022-12-29T14:43:17;40.92;;;19.60;;
56130;SDS011;42000;44.774;20.506;2022-12-29T14:45:47;41.55;;;19.00;;
56130;SDS011;42000;44.774;20.506;2022-12-29T14:48:39;47.55;;;22.88;;
56130;SDS011;42000;44.774;20.506;2022-12-29T14:51:16;50.38;;;25.02;;
56130;SDS011;42000;44.774;20.506;2022-12-29T14:53:44;55.80;;;28.52;;
56130;SDS011;42000;44.774;20.506;2022-12-29T14:56:11;57.13;;;29.95;;
56130;SDS011;42000;44.774;20.506;2022-12-29T15:03:59;53.78;;;27.17;;
56130;SDS011;42000;44.774;20.506;2022-12-29T15:06:27;52.03;;;26.67;;
56130;SDS011;42000;44.774;20.506;2022-12-29T15:09:03;60.47;;;27.80;;
56130;SDS011;42000;44.774;20.506;2022-12-29T15:13:56;59.08;;;28.40;;
56130;SDS011;42000;44.774;20.506;2022-12-29T15:16:23;58.20;;;26.85;;
56130;SDS011;42000;44.774;20.506;2022-12-29T15:18:50;63.35;;;28.02;;
56130;SDS011;42000;44.774;20.506;2022-12-29T15:21:16;61.95;;;27.30;;
56130;SDS011;42000;44.774;20.506;2022-12-29T15:23:43;61.95;;;28.25;;
56130;SDS011;42000;44.774;20.506;2022-12-29T15:26:10;56.92;;;26.30;;
56130;SDS011;42000;44.774;20.506;2022-12-29T15:28:41;55.13;;;27.42;;
56130;SDS011;42000;44.774;20.506;2022-12-29T15:33:40;53.72;;;27.77;;
56130;SDS011;42000;44.774;20.506;2022-12-29T15:36:10;56.63;;;28.85;;
56130;SDS011;42000;44.774;20.506;2022-12-29T15:38:37;60.60;;;32.28;;
